Time,TemperatureF,DewpointF,PressureIn,WindDirection,WindDirectionDegrees,WindSpeedMPH,WindSpeedGustMPH,Humidity,HourlyPrecipIn,Conditions,Clouds,dailyrainin,SoftwareType,DateUTC
2013-03-02 00:00:00,25.0,-99.9,-100.00,WSW,257,26.0,41.0,-999,-99.99,,,-99.99,,2013-03-02 07:00:00,
2013-03-02 00:52:00,25.0,-99.9,-100.00,WSW,257,26.0,41.0,-999,-99.99,,,-99.99,,2013-03-02 07:52:00,
2013-03-02 01:00:00,25.0,-99.9,-100.00,WSW,245,37.0,40.0,-999,-99.99,,,-99.99,,2013-03-02 08:00:00,
2013-03-02 01:52:00,25.0,-99.9,-100.00,WSW,245,37.0,40.0,-999,-99.99,,,-99.99,,2013-03-02 08:52:00,
2013-03-02 02:00:00,25.0,-99.9,-100.00,WSW,245,34.0,41.0,-999,-99.99,,,-99.99,,2013-03-02 09:00:00,
2013-03-02 02:52:00,25.0,-99.9,-100.00,WSW,245,34.0,41.0,-999,-99.99,,,-99.99,,2013-03-02 09:52:00,
2013-03-02 03:00:00,23.0,-99.9,-100.00,WSW,243,34.0,44.0,-999,-99.99,,,-99.99,,2013-03-02 10:00:00,
2013-03-02 03:52:00,23.0,-99.9,-100.00,WSW,243,34.0,44.0,-999,-99.99,,,-99.99,,2013-03-02 10:52:00,
2013-03-02 04:00:00,23.0,-99.9,-100.00,WSW,241,34.0,42.0,-999,-99.99,,,-99.99,,2013-03-02 11:00:00,
2013-03-02 04:52:00,23.0,-99.9,-100.00,WSW,241,34.0,42.0,-999,-99.99,,,-99.99,,2013-03-02 11:52:00,
2013-03-02 05:00:00,23.0,-99.9,-100.00,WSW,245,35.0,39.0,-999,-99.99,,,-99.99,,2013-03-02 12:00:00,
2013-03-02 05:53:00,23.0,-99.9,-100.00,WSW,245,35.0,39.0,-999,-99.99,,,-99.99,,2013-03-02 12:53:00,
2013-03-02 06:00:00,23.0,-99.9,-100.00,WSW,238,34.0,42.0,-999,-99.99,,,-99.99,,2013-03-02 13:00:00,
2013-03-02 06:53:00,23.0,-99.9,-100.00,WSW,238,34.0,42.0,-999,-99.99,,,-99.99,,2013-03-02 13:53:00,
2013-03-02 07:00:00,25.0,-99.9,-100.00,SW,229,32.0,46.0,-999,-99.99,,,-99.99,,2013-03-02 14:00:00,
2013-03-02 07:52:00,25.0,-99.9,-100.00,SW,229,32.0,46.0,-999,-99.99,,,-99.99,,2013-03-02 14:52:00,
2013-03-02 09:00:00,28.0,-99.9,-100.00,WSW,242,27.0,39.0,-999,-99.99,,,-99.99,,2013-03-02 16:00:00,
2013-03-02 09:52:00,28.0,-99.9,-100.00,WSW,242,27.0,39.0,-999,-99.99,,,-99.99,,2013-03-02 16:52:00,
2013-03-02 10:22:00,28.0,-99.9,-100.00,WSW,248,42.0,52.0,-999,-99.99,,,-99.99,,2013-03-02 17:22:00,
2013-03-02 10:32:00,28.0,-99.9,-100.00,WSW,244,40.0,50.0,-999,-99.99,,,-99.99,,2013-03-02 17:32:00,
2013-03-02 10:42:00,28.0,-99.9,-100.00,WSW,244,40.0,50.0,-999,-99.99,,,-99.99,,2013-03-02 17:42:00,
2013-03-02 10:52:00,30.0,-99.9,-100.00,WSW,245,33.0,42.0,-999,-99.99,,,-99.99,,2013-03-02 17:52:00,
2013-03-02 11:00:00,32.0,-99.9,-100.00,SW,233,32.0,44.0,-999,-99.99,,,-99.99,,2013-03-02 18:00:00,
2013-03-02 11:02:00,30.0,-99.9,-100.00,SW,235,38.0,47.0,-999,-99.99,,,-99.99,,2013-03-02 18:02:00,
2013-03-02 11:12:00,30.0,-99.9,-100.00,SW,235,38.0,47.0,-999,-99.99,,,-99.99,,2013-03-02 18:12:00,
2013-03-02 11:22:00,30.0,-99.9,-100.00,SW,226,25.0,47.0,-999,-99.99,,,-99.99,,2013-03-02 18:22:00,
2013-03-02 11:32:00,30.0,-99.9,-100.00,WSW,244,38.0,44.0,-999,-99.99,,,-99.99,,2013-03-02 18:32:00,
2013-03-02 11:42:00,30.0,-99.9,-100.00,WSW,244,38.0,44.0,-999,-99.99,,,-99.99,,2013-03-02 18:42:00,
2013-03-02 11:52:00,32.0,-99.9,-100.00,SW,233,32.0,44.0,-999,-99.99,,,-99.99,,2013-03-02 18:52:00,
2013-03-02 12:00:00,34.0,-99.9,-100.00,SW,232,36.0,43.0,-999,-99.99,,,-99.99,,2013-03-02 19:00:00,
2013-03-02 12:52:00,34.0,-99.9,-100.00,SW,232,36.0,43.0,-999,-99.99,,,-99.99,,2013-03-02 19:52:00,
2013-03-02 13:00:00,36.0,-99.9,-100.00,WSW,245,30.0,39.0,-999,-99.99,,,-99.99,,2013-03-02 20:00:00,
2013-03-02 13:53:00,36.0,-99.9,-100.00,WSW,245,30.0,39.0,-999,-99.99,,,-99.99,,2013-03-02 20:53:00,
2013-03-02 14:00:00,37.0,-99.9,-100.00,SW,224,32.0,36.0,-999,-99.99,,,-99.99,,2013-03-02 21:00:00,
2013-03-02 14:53:00,37.0,-99.9,-100.00,SW,224,32.0,36.0,-999,-99.99,,,-99.99,,2013-03-02 21:53:00,
2013-03-02 15:00:00,39.0,-99.9,-100.00,SW,229,23.0,31.0,-999,-99.99,,,-99.99,,2013-03-02 22:00:00,
2013-03-02 15:52:00,39.0,-99.9,-100.00,SW,229,23.0,31.0,-999,-99.99,,,-99.99,,2013-03-02 22:52:00,
2013-03-02 16:00:00,39.0,-99.9,-100.00,SW,229,23.0,31.0,-999,-99.99,,,-99.99,,2013-03-02 23:00:00,
2013-03-02 16:52:00,39.0,-99.9,-100.00,SW,229,23.0,31.0,-999,-99.99,,,-99.99,,2013-03-02 23:52:00,
2013-03-02 17:00:00,37.0,-99.9,-100.00,SW,227,15.0,27.0,-999,-99.99,,,-99.99,,2013-03-03 00:00:00,
2013-03-02 17:53:00,37.0,-99.9,-100.00,SW,227,15.0,27.0,-999,-99.99,,,-99.99,,2013-03-03 00:53:00,
2013-03-02 18:00:00,34.0,-99.9,-100.00,SW,231,11.0,14.0,-999,-99.99,,,-99.99,,2013-03-03 01:00:00,
2013-03-02 18:52:00,34.0,-99.9,-100.00,SW,231,11.0,14.0,-999,-99.99,,,-99.99,,2013-03-03 01:52:00,
2013-03-02 19:00:00,32.0,-99.9,-100.00,SW,231,11.0,20.0,-999,-99.99,,,-99.99,,2013-03-03 02:00:00,
2013-03-02 19:52:00,32.0,-99.9,-100.00,SW,231,11.0,20.0,-999,-99.99,,,-99.99,,2013-03-03 02:52:00,
2013-03-02 20:00:00,36.0,-99.9,-100.00,East,90,2.0,5.0,-999,-99.99,,,-99.99,,2013-03-03 03:00:00,
2013-03-02 20:52:00,36.0,-99.9,-100.00,East,90,2.0,5.0,-999,-99.99,,,-99.99,,2013-03-03 03:52:00,
2013-03-02 21:00:00,32.0,-99.9,-100.00,SSW,203,8.0,9.0,-999,-99.99,,,-99.99,,2013-03-03 04:00:00,
2013-03-02 21:52:00,32.0,-99.9,-100.00,SSW,203,8.0,9.0,-999,-99.99,,,-99.99,,2013-03-03 04:52:00,
2013-03-02 22:00:00,30.0,-99.9,-100.00,SSW,198,6.0,8.0,-999,-99.99,,,-99.99,,2013-03-03 05:00:00,
2013-03-02 22:52:00,30.0,-99.9,-100.00,SSW,198,6.0,8.0,-999,-99.99,,,-99.99,,2013-03-03 05:52:00,
2013-03-02 23:00:00,32.0,-99.9,-100.00,WSW,258,2.0,4.0,-999,-99.99,,,-99.99,,2013-03-03 06:00:00,
2013-03-02 23:32:00,32.0,-99.9,-100.00,WNW,282,2.0,5.0,-999,-99.99,,,-99.99,,2013-03-03 06:32:00,
2013-03-02 23:42:00,32.0,-99.9,-100.00,WNW,282,2.0,5.0,-999,-99.99,,,-99.99,,2013-03-03 06:42:00,
2013-03-02 23:52:00,32.0,-99.9,-100.00,WSW,258,2.0,4.0,-999,-99.99,,,-99.99,,2013-03-03 06:52:00,